Terminal Aerodrome Forecast
Issued by NWS Birmingham, AL

Home | Current Version | Previous Version | Text Only | Print | Product List | Glossary On
Versions: 1 2 3 4 5 6 7 8 9 10 11 12 13 14 15 16 17 18 19 20 21 22 23
000
FTUS44 KBMX 251241 AAA
TAFBHM
TAF AMD
KBHM 251241Z 2513/2612 00000KT 3SM BR OVC005
     FM251400 VRB03KT P6SM SCT010 BKN100
     FM251700 28003KT P6SM BKN050
     FM252300 VRB03KT P6SM SCT100=

USA.gov is the U.S. government's official web portal to all federal, state and local government web resources and services.